Time;durP1;ratioP1;P1;durP2;ratioP2;P2;SDS_P1;SDS_P2;PMS_P1;PMS_P2;Temp;Humidity;BMP_temperature;BMP_pressure;BME280_temperature;BME280_humidity;BME280_pressure;Samples;Min_cycle;Max_cycle;Signal;HPM_P1;HPM_P2
2023/05/31 00:00:58;;;;;;;1.80;1.55;;;;;;;20.01;46.88;102872.53;4968759;28;20566;-89
2023/05/31 00:03:24;;;;;;;2.83;1.80;;;;;;;19.96;46.76;102856.22;4979118;28;20049;-90
2023/05/31 00:05:50;;;;;;;2.55;1.70;;;;;;;19.94;46.78;102863.47;4970126;28;20045;-91
2023/05/31 00:08:15;;;;;;;3.50;1.90;;;;;;;19.90;46.67;102859.38;4984304;28;20042;-90
2023/05/31 00:10:41;;;;;;;2.08;1.60;;;;;;;19.84;46.95;102849.34;4967466;28;20057;-91
2023/05/31 00:13:06;;;;;;;2.70;1.58;;;;;;;19.86;46.72;102856.16;4981131;28;20046;-91
2023/05/31 00:15:32;;;;;;;2.75;1.95;;;;;;;19.82;46.89;102859.19;4998564;28;20046;-90
2023/05/31 00:17:57;;;;;;;2.42;1.90;;;;;;;19.90;46.89;102865.50;4979991;28;20048;-89
2023/05/31 00:20:23;;;;;;;2.85;1.90;;;;;;;19.82;46.91;102854.75;4982290;28;20088;-90
2023/05/31 00:22:49;;;;;;;2.08;1.83;;;;;;;19.77;46.90;102843.75;4965653;28;20038;-89
2023/05/31 00:25:15;;;;;;;2.10;1.67;;;;;;;19.86;46.98;102863.25;4982534;28;20046;-89
2023/05/31 00:27:40;;;;;;;1.92;1.73;;;;;;;19.75;47.00;102844.81;4985566;28;20033;-90
2023/05/31 00:30:06;;;;;;;3.45;2.10;;;;;;;19.75;46.96;102847.47;4967954;28;20061;-88
2023/05/31 00:32:32;;;;;;;3.03;2.10;;;;;;;19.72;46.93;102838.00;4996816;28;20034;-88
2023/05/31 00:34:57;;;;;;;2.35;1.88;;;;;;;19.76;46.91;102847.34;4971664;28;20100;-88
2023/05/31 00:37:23;;;;;;;2.10;1.90;;;;;;;19.74;46.89;102836.03;4964832;28;20038;-89
2023/05/31 00:39:48;;;;;;;2.72;1.70;;;;;;;19.47;47.02;102796.91;4976748;28;20068;-88
2023/05/31 00:42:14;;;;;;;2.97;1.83;;;;;;;19.74;47.12;102840.50;4963242;28;20033;-90
2023/05/31 00:44:40;;;;;;;3.00;1.90;;;;;;;19.74;46.86;102845.78;4965015;28;20037;-90
2023/05/31 00:47:06;;;;;;;3.22;2.20;;;;;;;19.80;47.12;102850.56;4986956;28;20049;-90
2023/05/31 00:49:32;;;;;;;3.80;1.70;;;;;;;19.69;46.94;102832.97;4965209;28;20042;-90
2023/05/31 00:51:58;;;;;;;3.45;1.75;;;;;;;19.65;47.04;102828.06;4983629;28;20034;-89
2023/05/31 00:54:24;;;;;;;2.78;1.92;;;;;;;19.67;46.95;102832.25;4968959;28;20041;-87
2023/05/31 00:56:49;;;;;;;2.20;1.70;;;;;;;19.75;47.04;102842.16;4981622;28;20061;-89
2023/05/31 00:59:16;;;;;;;4.13;2.25;;;;;;;19.75;47.01;102848.31;4980773;28;20041;-88
2023/05/31 01:01:42;;;;;;;3.70;2.08;;;;;;;19.57;47.13;102826.94;4994657;28;20490;-89
2023/05/31 01:04:08;;;;;;;2.25;1.67;;;;;;;19.70;47.16;102850.50;5003274;28;20030;-90
2023/05/31 01:06:34;;;;;;;2.67;1.88;;;;;;;19.66;47.06;102842.97;4988874;28;20256;-86
2023/05/31 01:09:07;;;;;;;2.83;1.88;;;;;;;19.55;47.11;102825.34;4985464;28;20042;-88
2023/05/31 01:12:12;;;;;;;2.55;1.80;;;;;;;19.58;47.11;102828.59;4998366;28;20030;-87
2023/05/31 01:15:00;;;;;;;2.67;2.00;;;;;;;19.70;47.13;102853.13;4998281;28;20525;-87
2023/05/31 01:17:44;;;;;;;4.32;2.00;;;;;;;19.64;46.77;102842.25;5015449;28;20038;-86
2023/05/31 01:20:13;;;;;;;4.10;1.90;;;;;;;19.54;46.99;102826.31;5004387;28;20041;-87
2023/05/31 01:22:51;;;;;;;2.47;1.70;;;;;;;19.68;47.09;102855.09;4981713;28;20092;-87
2023/05/31 01:25:35;;;;;;;3.05;2.03;;;;;;;19.64;46.92;102844.91;5016323;28;20037;-86
2023/05/31 01:28:05;;;;;;;3.92;1.88;;;;;;;19.62;47.07;102837.09;5006308;28;20042;-85
2023/05/31 01:30:32;;;;;;;2.35;2.00;;;;;;;19.52;47.01;102834.34;5001822;28;20082;-86
2023/05/31 01:33:00;;;;;;;3.10;1.77;;;;;;;19.68;47.12;102844.50;4983180;28;20034;-87
2023/05/31 01:35:28;;;;;;;2.55;1.63;;;;;;;19.57;47.16;102837.50;5000737;28;20058;-86
2023/05/31 01:37:53;;;;;;;3.20;1.90;;;;;;;19.55;47.14;102828.84;4987463;28;20041;-85
2023/05/31 01:40:19;;;;;;;1.85;1.70;;;;;;;19.61;47.06;102830.16;5001717;28;20045;-86
2023/05/31 01:42:46;;;;;;;1.90;1.67;;;;;;;19.56;47.13;102830.50;4984159;28;20045;-87
2023/05/31 01:45:15;;;;;;;3.13;1.83;;;;;;;19.51;47.08;102826.56;4981379;28;20029;-86
2023/05/31 01:47:42;;;;;;;2.75;2.00;;;;;;;19.48;47.12;102819.75;4999128;28;20046;-87
2023/05/31 01:50:12;;;;;;;2.90;2.05;;;;;;;19.43;47.19;102819.28;4985036;28;20053;-86
2023/05/31 01:52:40;;;;;;;3.28;1.85;;;;;;;19.50;47.32;102838.09;5015418;28;20034;-86
2023/05/31 01:55:07;;;;;;;2.30;1.70;;;;;;;19.44;47.19;102820.13;4981968;28;20081;-86
2023/05/31 01:57:39;;;;;;;2.40;1.88;;;;;;;19.28;47.33;102807.38;4969439;28;20167;-85
2023/05/31 02:00:12;;;;;;;2.72;1.95;;;;;;;19.45;47.37;102833.22;4994447;28;20424;-85
2023/05/31 02:02:44;;;;;;;2.40;1.70;;;;;;;19.46;47.10;102836.69;4995380;28;20045;-86
2023/05/31 02:05:12;;;;;;;2.88;1.83;;;;;;;19.38;47.32;102825.91;4990027;28;20113;-87
2023/05/31 02:07:43;;;;;;;2.88;1.85;;;;;;;19.47;47.21;102843.66;4981828;28;20046;-86
2023/05/31 02:10:10;;;;;;;3.00;2.08;;;;;;;19.52;47.33;102849.38;4984231;28;20142;-87
2023/05/31 02:12:38;;;;;;;3.85;2.08;;;;;;;19.52;47.25;102854.66;5000025;28;20026;-86
2023/05/31 02:15:04;;;;;;;3.10;1.95;;;;;;;19.29;47.21;102819.59;4998663;28;20078;-87
2023/05/31 02:17:32;;;;;;;2.28;1.80;;;;;;;19.37;47.41;102840.91;4990767;28;20037;-87
2023/05/31 02:19:58;;;;;;;2.38;1.70;;;;;;;19.45;47.27;102857.00;4985882;28;20066;-86
2023/05/31 02:22:24;;;;;;;3.63;2.00;;;;;;;19.47;47.29;102857.69;5013712;28;20033;-87
2023/05/31 02:24:50;;;;;;;2.47;1.88;;;;;;;19.46;47.33;102858.66;5000248;28;20145;-88
2023/05/31 02:27:16;;;;;;;2.08;1.65;;;;;;;19.42;47.07;102862.53;4998251;28;20042;-87
2023/05/31 02:29:41;;;;;;;3.60;1.80;;;;;;;19.38;47.48;102847.03;5014481;28;20065;-87
2023/05/31 02:32:07;;;;;;;3.63;1.98;;;;;;;19.39;47.48;102846.94;4996908;28;20064;-87
2023/05/31 02:34:33;;;;;;;2.80;1.92;;;;;;;19.44;47.44;102846.56;4969216;28;20037;-87
2023/05/31 02:37:00;;;;;;;3.15;2.00;;;;;;;19.17;47.63;102810.06;4981914;28;20030;-87
2023/05/31 02:39:26;;;;;;;2.83;2.15;;;;;;;19.45;47.22;102850.88;4978283;28;20046;-87
2023/05/31 02:41:51;;;;;;;2.63;1.70;;;;;;;19.38;47.43;102844.41;4969746;28;20038;-87
2023/05/31 02:44:17;;;;;;;2.83;1.73;;;;;;;19.32;47.45;102836.03;4985203;28;20574;-88
2023/05/31 02:46:44;;;;;;;3.53;1.90;;;;;;;19.42;47.46;102856.41;5000813;28;20919;-88
2023/05/31 02:49:11;;;;;;;3.03;2.00;;;;;;;19.40;47.32;102853.91;4973147;28;20040;-89
2023/05/31 02:51:37;;;;;;;3.90;1.90;;;;;;;19.02;47.41;102801.59;4996049;28;20038;-87
2023/05/31 02:54:02;;;;;;;3.22;2.30;;;;;;;19.30;47.26;102842.41;4979931;28;20588;-87
2023/05/31 02:56:30;;;;;;;2.05;1.70;;;;;;;19.35;47.21;102850.78;4961107;28;20066;-87
2023/05/31 02:58:56;;;;;;;2.67;2.00;;;;;;;19.31;47.30;102833.53;4981734;28;20038;-88
2023/05/31 03:01:31;;;;;;;2.08;1.80;;;;;;;19.15;47.32;102817.25;4935930;28;20031;-87
2023/05/31 03:04:16;;;;;;;2.42;1.80;;;;;;;19.28;47.41;102839.91;4953004;28;20074;-88
2023/05/31 03:06:43;;;;;;;2.90;2.13;;;;;;;19.18;47.36;102825.78;4933005;28;20040;-88
2023/05/31 03:09:13;;;;;;;2.45;1.75;;;;;;;19.09;47.32;102807.22;4981556;28;20728;-87
2023/05/31 03:11:39;;;;;;;2.15;1.70;;;;;;;19.29;47.32;102843.38;4973211;28;20046;-88
2023/05/31 03:14:06;;;;;;;3.17;2.10;;;;;;;19.25;47.28;102836.69;4968272;28;20125;-89
2023/05/31 03:16:46;;;;;;;2.45;1.95;;;;;;;19.16;47.31;102818.94;4963489;28;20031;-87
2023/05/31 03:19:12;;;;;;;2.67;2.25;;;;;;;19.30;47.30;102840.59;4980818;28;20045;-87
2023/05/31 03:21:39;;;;;;;3.75;2.22;;;;;;;19.32;47.44;102848.41;4964866;28;20117;-88
2023/05/31 03:24:06;;;;;;;2.55;2.13;;;;;;;19.29;47.49;102852.13;4967380;28;20443;-88
2023/05/31 03:26:31;;;;;;;2.60;1.80;;;;;;;19.27;47.43;102851.44;4978262;28;20030;-87
2023/05/31 03:28:57;;;;;;;2.47;2.00;;;;;;;19.25;47.42;102836.69;4979799;28;20070;-87
2023/05/31 03:31:23;;;;;;;2.90;2.10;;;;;;;19.37;47.32;102851.50;4981076;28;20034;-87
2023/05/31 03:33:50;;;;;;;3.33;2.05;;;;;;;19.27;47.50;102847.94;4965502;28;20037;-89
2023/05/31 03:36:17;;;;;;;2.42;1.85;;;;;;;19.20;47.54;102839.69;4946727;28;20154;-89
2023/05/31 03:38:43;;;;;;;2.25;1.85;;;;;;;19.33;47.47;102858.00;4953608;28;20054;-89
2023/05/31 03:41:08;;;;;;;2.63;1.90;;;;;;;19.22;47.43;102842.22;4981387;28;20038;-87
2023/05/31 03:43:35;;;;;;;2.83;2.08;;;;;;;19.21;47.39;102840.50;4946973;28;20287;-87
2023/05/31 03:46:01;;;;;;;2.15;1.60;;;;;;;19.20;47.33;102829.13;4976926;28;20067;-87
2023/05/31 03:48:30;;;;;;;2.90;2.08;;;;;;;19.30;47.23;102859.09;4968144;28;20045;-87
2023/05/31 03:50:56;;;;;;;2.78;2.10;;;;;;;19.18;47.34;102840.78;4966686;28;20061;-88
2023/05/31 03:53:22;;;;;;;2.95;2.20;;;;;;;19.14;47.56;102845.47;4976123;28;20058;-89
2023/05/31 03:55:48;;;;;;;2.33;2.00;;;;;;;19.20;47.39;102854.69;4967399;28;20727;-89
2023/05/31 03:58:13;;;;;;;3.78;1.92;;;;;;;19.28;47.26;102857.56;4968816;28;20093;-89
2023/05/31 04:00:41;;;;;;;2.78;2.05;;;;;;;19.26;47.25;102856.84;4972898;28;20116;-85
2023/05/31 04:03:07;;;;;;;3.00;2.00;;;;;;;19.18;47.32;102849.53;5010139;28;20101;-86
2023/05/31 04:05:35;;;;;;;2.92;1.90;;;;;;;19.26;47.35;102857.69;4966765;28;20650;-86
2023/05/31 04:08:01;;;;;;;2.90;2.10;;;;;;;19.22;47.23;102843.06;4965905;28;20041;-86
2023/05/31 04:10:29;;;;;;;3.03;2.25;;;;;;;19.20;47.20;102852.88;4964132;28;20030;-86
2023/05/31 04:12:55;;;;;;;4.28;2.10;;;;;;;19.18;47.48;102856.63;5001424;28;20053;-86
2023/05/31 04:15:22;;;;;;;4.13;2.30;;;;;;;19.13;47.23;102854.38;5026284;28;20040;-86
2023/05/31 04:17:47;;;;;;;2.25;1.92;;;;;;;19.22;47.49;102858.91;4978415;28;20042;-86
2023/05/31 04:20:13;;;;;;;4.20;1.95;;;;;;;19.13;47.44;102846.44;5014306;28;20033;-86
2023/05/31 04:22:39;;;;;;;2.15;1.80;;;;;;;19.33;47.30;102872.03;4978284;28;20038;-88
2023/05/31 04:25:05;;;;;;;3.78;1.80;;;;;;;19.29;47.27;102869.78;4987682;28;20041;-88
2023/05/31 04:27:38;;;;;;;3.22;2.22;;;;;;;19.19;47.16;102853.84;4994686;28;20030;-88
2023/05/31 04:30:05;;;;;;;2.53;2.00;;;;;;;19.33;47.28;102868.56;4986827;28;20396;-89
2023/05/31 04:32:34;;;;;;;3.92;2.22;;;;;;;19.29;47.11;102864.50;4982322;28;20042;-90
2023/05/31 04:35:03;;;;;;;3.72;2.17;;;;;;;19.25;47.16;102857.81;4969653;28;20034;-90
2023/05/31 04:37:30;;;;;;;4.47;2.50;;;;;;;19.27;47.07;102861.16;5017516;28;20029;-90
2023/05/31 04:39:59;;;;;;;3.17;2.22;;;;;;;19.22;47.47;102858.91;5002549;28;20045;-89
2023/05/31 04:42:28;;;;;;;3.15;1.80;;;;;;;19.06;47.23;102839.16;4989508;28;20044;-88
2023/05/31 04:44:57;;;;;;;2.75;2.10;;;;;;;19.30;47.33;102874.94;4996372;28;20026;-88
2023/05/31 04:47:27;;;;;;;3.30;2.20;;;;;;;19.27;47.24;102858.53;5004795;28;20073;-88
2023/05/31 04:49:56;;;;;;;2.08;1.73;;;;;;;19.30;47.15;102877.59;5003522;28;20052;-89
2023/05/31 04:52:26;;;;;;;3.22;2.17;;;;;;;19.25;47.35;102866.56;4990540;28;20045;-89
2023/05/31 04:54:55;;;;;;;3.65;1.92;;;;;;;19.03;47.38;102832.34;5006287;28;20025;-89
2023/05/31 04:57:22;;;;;;;3.15;2.03;;;;;;;18.98;47.33;102816.84;5001275;28;20060;-89
2023/05/31 04:59:49;;;;;;;3.83;2.38;;;;;;;19.17;47.25;102849.66;4991108;28;20030;-90
2023/05/31 05:02:17;;;;;;;3.03;2.10;;;;;;;19.13;47.08;102842.97;4956124;28;20031;-88
2023/05/31 05:04:42;;;;;;;3.33;2.10;;;;;;;19.19;47.29;102861.78;5002704;28;20058;-90
2023/05/31 05:07:08;;;;;;;3.40;2.20;;;;;;;19.06;47.25;102839.16;4986308;28;20038;-89
2023/05/31 05:09:35;;;;;;;4.22;2.40;;;;;;;19.06;47.07;102831.25;4987027;28;20041;-89
2023/05/31 05:12:02;;;;;;;2.92;2.00;;;;;;;19.12;46.95;102849.22;4989622;28;20972;-88
2023/05/31 05:14:30;;;;;;;2.50;2.22;;;;;;;19.21;46.89;102854.59;4956355;28;20042;-89
2023/05/31 05:16:57;;;;;;;3.15;2.08;;;;;;;19.36;47.05;102878.03;4983674;28;20102;-91
2023/05/31 05:19:23;;;;;;;2.60;2.13;;;;;;;19.27;47.18;102869.94;4939796;28;20030;-90
2023/05/31 05:21:50;;;;;;;2.70;2.00;;;;;;;19.32;47.16;102873.00;4970662;28;20034;-91
2023/05/31 05:24:16;;;;;;;4.18;2.10;;;;;;;19.23;47.02;102857.94;4999154;28;20041;-91
2023/05/31 05:26:43;;;;;;;3.53;2.33;;;;;;;19.27;47.09;102856.72;4970590;28;20033;-90
2023/05/31 05:29:08;;;;;;;4.47;2.13;;;;;;;19.25;46.89;102865.72;5001467;28;20042;-91
2023/05/31 05:31:34;;;;;;;4.10;2.05;;;;;;;19.31;46.88;102871.34;4987430;28;20034;-91
2023/05/31 05:34:03;;;;;;;2.60;1.80;;;;;;;19.21;47.14;102853.72;4956112;28;20034;-91
2023/05/31 05:36:28;;;;;;;2.40;1.90;;;;;;;19.30;47.22;102876.75;4976654;28;20044;-90
2023/05/31 05:38:58;;;;;;;3.22;2.25;;;;;;;19.25;47.08;102857.81;4953545;28;20039;-91
2023/05/31 05:41:25;;;;;;;3.20;2.10;;;;;;;19.30;46.95;102871.47;4985470;28;20085;-90
2023/05/31 05:43:51;;;;;;;2.35;2.00;;;;;;;19.22;47.15;102847.50;4957083;28;20038;-91
2023/05/31 05:46:17;;;;;;;2.75;2.10;;;;;;;19.29;47.01;102853.94;4961498;28;20045;-87
2023/05/31 05:48:42;;;;;;;2.92;2.22;;;;;;;19.38;47.09;102870.81;5000645;28;20038;-87
2023/05/31 05:51:09;;;;;;;3.97;2.17;;;;;;;19.31;47.01;102852.84;5002755;28;20061;-88
2023/05/31 05:53:35;;;;;;;3.10;2.28;;;;;;;19.27;47.02;102848.78;5000354;28;20034;-87
2023/05/31 05:56:01;;;;;;;3.28;2.10;;;;;;;19.32;47.07;102856.31;4992479;28;20132;-89
2023/05/31 05:58:34;;;;;;;4.03;2.13;;;;;;;19.13;47.14;102825.31;5000792;28;20519;-87
2023/05/31 06:01:03;;;;;;;4.03;2.00;;;;;;;19.30;47.14;102856.47;4997052;28;20060;-88
2023/05/31 06:03:32;;;;;;;2.65;2.00;;;;;;;19.39;46.84;102865.44;5020624;28;20069;-89
2023/05/31 06:06:00;;;;;;;3.33;2.08;;;;;;;19.31;47.17;102852.00;4992999;28;20096;-89
2023/05/31 06:08:25;;;;;;;2.50;1.98;;;;;;;19.29;47.07;102848.66;4978898;28;20042;-88
2023/05/31 06:10:51;;;;;;;4.00;2.42;;;;;;;19.15;47.03;102823.38;4991836;28;20041;-88
2023/05/31 06:13:16;;;;;;;3.05;2.25;;;;;;;19.28;47.01;102846.97;4992398;28;20484;-89
2023/05/31 06:15:42;;;;;;;2.67;2.00;;;;;;;19.21;46.81;102825.53;4980582;28;20033;-89
2023/05/31 06:18:09;;;;;;;3.25;2.17;;;;;;;19.18;46.92;102825.78;4970843;28;20045;-89
2023/05/31 06:20:34;;;;;;;4.03;2.40;;;;;;;19.23;46.94;102831.53;4981914;28;20040;-87
2023/05/31 06:23:00;;;;;;;2.65;2.00;;;;;;;19.44;47.12;102857.97;4984473;28;20500;-88
2023/05/31 06:25:26;;;;;;;3.80;2.30;;;;;;;19.23;46.93;102826.25;5020208;28;20495;-88
2023/05/31 06:27:52;;;;;;;3.58;2.65;;;;;;;19.50;46.91;102860.06;5006296;28;20076;-87
2023/05/31 06:30:18;;;;;;;2.45;1.73;;;;;;;19.43;46.82;102853.63;5005285;28;20033;-88
2023/05/31 06:32:45;;;;;;;5.28;2.20;;;;;;;19.45;46.91;102858.78;4959642;28;20038;-91
2023/05/31 06:35:18;;;;;;;3.15;2.10;;;;;;;19.57;46.93;102869.22;4953199;28;20038;-85
2023/05/31 06:37:46;;;;;;;2.58;1.88;;;;;;;19.35;46.76;102826.16;4982999;28;20038;-88
2023/05/31 06:40:12;;;;;;;4.57;2.33;;;;;;;19.52;46.62;102844.09;5012102;28;20555;-84
2023/05/31 06:42:39;;;;;;;3.08;2.35;;;;;;;19.43;46.57;102829.88;4980432;28;20034;-87
2023/05/31 06:45:27;;;;;;;3.20;2.30;;;;;;;19.70;46.34;102861.06;4975358;28;20033;-88
2023/05/31 06:47:53;;;;;;;3.38;2.00;;;;;;;19.82;46.37;102869.78;5000391;28;20046;-87
2023/05/31 06:50:21;;;;;;;4.30;2.10;;;;;;;19.82;46.29;102860.03;5028069;28;20038;-89
2023/05/31 06:52:47;;;;;;;2.53;1.83;;;;;;;19.91;46.33;102866.34;5006476;28;20093;-89
2023/05/31 06:55:32;;;;;;;5.32;2.00;;;;;;;19.88;45.83;102846.28;5006636;28;20066;-89
2023/05/31 06:57:59;;;;;;;3.42;1.90;;;;;;;20.02;46.10;102855.69;4976144;28;20042;-89
2023/05/31 07:00:25;;;;;;;2.10;1.90;;;;;;;20.07;45.97;102871.16;4965131;28;20045;-90
2023/05/31 07:02:51;;;;;;;4.70;2.50;;;;;;;19.97;45.75;102849.13;5004038;28;20061;-88
2023/05/31 07:05:17;;;;;;;4.15;2.22;;;;;;;19.89;45.77;102831.25;4977706;28;20055;-89
2023/05/31 07:07:46;;;;;;;3.08;2.20;;;;;;;20.05;45.94;102844.00;4946616;28;20089;-88
2023/05/31 07:10:11;;;;;;;2.92;1.90;;;;;;;20.19;45.65;102865.66;4985581;28;20039;-89
2023/05/31 07:12:37;;;;;;;4.45;2.22;;;;;;;20.27;45.82;102859.69;4986803;28;20026;-88
2023/05/31 07:15:03;;;;;;;2.97;2.08;;;;;;;20.34;45.78;102868.78;4984548;28;20034;-88
2023/05/31 07:17:29;;;;;;;6.22;2.25;;;;;;;20.17;45.61;102821.78;4964914;28;20035;-88
2023/05/31 07:19:55;;;;;;;4.25;2.03;;;;;;;20.33;45.70;102850.38;4964590;28;20042;-88
2023/05/31 07:22:22;;;;;;;3.35;2.28;;;;;;;20.43;45.41;102865.34;4982530;28;20041;-88
2023/05/31 07:24:48;;;;;;;3.70;2.20;;;;;;;20.44;45.58;102858.25;4977024;28;20146;-88
2023/05/31 07:27:13;;;;;;;2.92;1.70;;;;;;;20.40;45.63;102847.06;4977734;28;20049;-88
2023/05/31 07:29:39;;;;;;;2.33;1.77;;;;;;;20.45;45.31;102847.53;4979516;28;20034;-89
2023/05/31 07:32:05;;;;;;;3.55;1.90;;;;;;;20.45;45.35;102839.56;4985971;28;20035;-89
2023/05/31 07:34:31;;;;;;;2.47;2.20;;;;;;;20.60;45.24;102855.09;4996696;28;20117;-88
2023/05/31 07:36:57;;;;;;;3.42;2.00;;;;;;;20.62;45.30;102853.13;4966603;28;20405;-89
2023/05/31 07:39:23;;;;;;;2.63;1.80;;;;;;;20.53;45.25;102830.97;4999590;28;20042;-88
2023/05/31 07:41:48;;;;;;;2.70;1.83;;;;;;;20.49;45.40;102819.84;4970391;28;20038;-88
2023/05/31 07:44:16;;;;;;;4.72;2.28;;;;;;;20.68;45.05;102849.97;4983098;28;20034;-88
2023/05/31 07:46:42;;;;;;;1.95;1.70;;;;;;;20.62;45.30;102827.50;4963805;28;20042;-87
2023/05/31 07:49:08;;;;;;;2.97;1.75;;;;;;;20.72;45.21;102852.19;4970109;28;20073;-88
2023/05/31 07:51:33;;;;;;;4.70;2.30;;;;;;;20.66;45.29;102836.88;4983109;28;20034;-88
2023/05/31 07:53:59;;;;;;;2.53;1.75;;;;;;;20.68;45.33;102826.13;4996156;28;20564;-88
2023/05/31 07:56:25;;;;;;;2.30;1.88;;;;;;;20.76;45.43;102834.22;4974274;28;20053;-88
2023/05/31 07:58:50;;;;;;;2.63;2.00;;;;;;;20.71;45.03;102820.56;5016007;28;20033;-88
2023/05/31 08:01:16;;;;;;;3.60;2.00;;;;;;;20.79;45.12;102823.34;5014065;28;20045;-88
2023/05/31 08:03:41;;;;;;;3.38;1.95;;;;;;;20.79;45.08;102818.88;4998193;28;20048;-88
2023/05/31 08:06:08;;;;;;;3.67;2.08;;;;;;;20.76;45.12;102816.50;4976560;28;20046;-88
2023/05/31 08:08:33;;;;;;;3.03;2.10;;;;;;;20.80;45.28;102819.72;4977015;28;20153;-89
2023/05/31 08:11:00;;;;;;;3.42;2.03;;;;;;;20.79;45.09;102816.25;5016984;28;20041;-88
2023/05/31 08:13:28;;;;;;;2.63;1.80;;;;;;;20.88;45.34;102827.00;5014625;28;20026;-89
2023/05/31 08:15:54;;;;;;;1.80;1.70;;;;;;;20.80;45.07;102806.47;5011051;28;20030;-88
2023/05/31 08:18:19;;;;;;;3.38;1.90;;;;;;;20.94;45.15;102831.72;5018444;28;20037;-86
2023/05/31 08:20:45;;;;;;;4.50;2.00;;;;;;;20.90;45.04;102822.38;4997194;28;20038;-87
2023/05/31 08:23:18;;;;;;;1.85;1.67;;;;;;;20.90;45.28;102819.75;5028520;28;20041;-89
2023/05/31 08:25:44;;;;;;;3.25;2.00;;;;;;;20.99;45.44;102829.47;5008961;28;20718;-89
2023/05/31 08:28:09;;;;;;;3.35;1.63;;;;;;;20.93;45.31;102819.47;5004192;28;20026;-89
2023/05/31 08:30:35;;;;;;;2.92;1.85;;;;;;;20.83;45.09;102800.94;5021591;28;20030;-88
2023/05/31 08:33:01;;;;;;;2.22;1.50;;;;;;;20.88;45.18;102801.34;5025680;28;20072;-89
2023/05/31 08:35:27;;;;;;;3.60;1.98;;;;;;;21.02;45.15;102827.41;4983904;28;20038;-89
2023/05/31 08:37:54;;;;;;;3.60;1.88;;;;;;;21.05;45.13;102826.31;4993043;28;20053;-89
2023/05/31 08:40:23;;;;;;;4.50;1.77;;;;;;;21.01;45.20;102819.63;5019329;28;20080;-90
2023/05/31 08:42:55;;;;;;;3.47;1.90;;;;;;;21.07;45.29;102829.63;4996440;28;20033;-89
2023/05/31 08:45:21;;;;;;;1.63;1.50;;;;;;;21.07;45.06;102830.47;5005696;28;20094;-88
2023/05/31 08:48:02;;;;;;;3.70;2.03;;;;;;;20.96;45.05;102812.06;5012524;28;20064;-88
2023/05/31 08:50:28;;;;;;;3.60;2.00;;;;;;;21.03;45.15;102821.16;5003679;28;20042;-89
2023/05/31 08:52:56;;;;;;;3.50;1.80;;;;;;;20.91;45.02;102798.41;5012043;28;20038;-89
2023/05/31 08:55:23;;;;;;;3.45;1.85;;;;;;;21.05;45.10;102810.41;4997551;28;20045;-89
2023/05/31 08:57:51;;;;;;;2.00;1.60;;;;;;;20.94;45.15;102786.69;5020529;28;20045;-89
2023/05/31 09:00:18;;;;;;;4.78;1.92;;;;;;;20.92;45.01;102786.84;4996883;28;20029;-89
2023/05/31 09:02:44;;;;;;;3.83;1.95;;;;;;;20.99;45.26;102801.19;4991341;28;20068;-88
2023/05/31 09:05:10;;;;;;;2.63;1.90;;;;;;;20.94;45.18;102784.06;4998510;28;20046;-90
2023/05/31 09:07:37;;;;;;;3.10;1.90;;;;;;;20.89;45.25;102784.47;5019787;28;20029;-89
2023/05/31 09:10:05;;;;;;;3.00;1.80;;;;;;;20.85;45.11;102769.84;5006693;28;20045;-89
2023/05/31 09:12:31;;;;;;;2.67;1.92;;;;;;;20.99;45.08;102798.53;5016963;28;20046;-90
2023/05/31 09:14:57;;;;;;;3.60;1.98;;;;;;;21.04;45.04;102803.44;5004416;28;20101;-89
2023/05/31 09:17:23;;;;;;;3.33;1.83;;;;;;;20.94;45.11;102787.53;5002067;28;20046;-90
2023/05/31 09:19:54;;;;;;;3.22;1.90;;;;;;;21.06;45.09;102802.31;5011561;28;20056;-89
2023/05/31 09:22:22;;;;;;;2.35;1.77;;;;;;;21.13;45.06;102813.19;5009609;28;20048;-89
2023/05/31 09:24:56;;;;;;;2.55;1.92;;;;;;;21.11;45.26;102804.53;4997176;28;20046;-88
2023/05/31 09:27:22;;;;;;;4.18;1.73;;;;;;;20.87;45.05;102773.19;5015193;28;20080;-89
2023/05/31 09:29:52;;;;;;;3.83;1.85;;;;;;;21.12;45.02;102809.69;5034283;28;20116;-89
2023/05/31 09:32:19;;;;;;;3.78;1.77;;;;;;;21.00;45.40;102779.03;5019889;28;20038;-89
2023/05/31 09:34:45;;;;;;;3.35;2.03;;;;;;;21.06;45.06;102780.28;5006389;28;20040;-88
2023/05/31 09:37:21;;;;;;;3.75;1.88;;;;;;;21.07;45.09;102788.09;4987650;28;20034;-89
2023/05/31 09:39:57;;;;;;;2.78;1.70;;;;;;;21.13;45.00;102803.41;5000109;28;20143;-89
2023/05/31 09:42:29;;;;;;;3.05;2.10;;;;;;;21.09;45.22;102793.25;5018465;28;20073;-89
2023/05/31 09:44:54;;;;;;;4.55;2.00;;;;;;;21.10;45.20;102798.41;5019716;28;20057;-89
2023/05/31 09:47:27;;;;;;;3.53;1.63;;;;;;;21.09;45.15;102794.09;4970923;28;20400;-89
2023/05/31 09:49:54;;;;;;;3.13;2.08;;;;;;;21.12;44.92;102795.63;5017515;28;20048;-89
2023/05/31 09:52:32;;;;;;;5.05;1.83;;;;;;;21.06;45.31;102785.59;5016865;28;20061;-89
2023/05/31 09:55:05;;;;;;;2.35;1.80;;;;;;;21.05;45.21;102786.56;5017256;28;20037;-89
2023/05/31 09:57:45;;;;;;;2.13;1.70;;;;;;;20.98;45.34;102778.31;5002449;28;20042;-89
2023/05/31 10:00:17;;;;;;;5.03;1.90;;;;;;;21.05;45.54;102790.06;5020392;28;20080;-89
2023/05/31 10:02:48;;;;;;;3.83;2.03;;;;;;;21.11;45.24;102800.06;5014950;28;20093;-89
2023/05/31 10:05:15;;;;;;;3.35;2.00;;;;;;;20.84;45.54;102762.06;5038711;28;20503;-89
2023/05/31 10:07:45;;;;;;;3.33;1.92;;;;;;;21.02;45.15;102785.03;5038703;28;20053;-88
2023/05/31 10:10:11;;;;;;;2.45;1.83;;;;;;;21.04;45.23;102792.84;5012481;28;20075;-89
2023/05/31 10:13:04;;;;;;;2.97;1.95;;;;;;;21.10;45.14;102792.28;5018484;28;20056;-89
2023/05/31 10:15:31;;;;;;;4.68;2.53;;;;;;;21.05;45.41;102791.88;5029187;28;20116;-89
2023/05/31 10:18:07;;;;;;;2.40;1.90;;;;;;;21.09;45.28;102802.03;5017114;28;20105;-89
2023/05/31 10:20:38;;;;;;;3.67;1.83;;;;;;;21.00;45.51;102781.66;4999505;28;20060;-89
2023/05/31 10:23:12;;;;;;;3.00;2.00;;;;;;;21.04;45.55;102795.50;5012587;28;20102;-88
2023/05/31 10:25:53;;;;;;;2.55;1.55;;;;;;;21.08;45.43;102795.06;5035504;28;20038;-89
2023/05/31 10:28:24;;;;;;;4.13;2.25;;;;;;;20.96;45.58;102782.09;5019066;28;20034;-90
2023/05/31 10:30:51;;;;;;;5.00;2.40;;;;;;;20.98;45.37;102794.22;5003106;28;20038;-90
2023/05/31 10:33:19;;;;;;;3.67;1.80;;;;;;;20.90;45.74;102780.03;5017245;28;20038;-89
2023/05/31 10:35:45;;;;;;;4.20;2.10;;;;;;;21.07;45.80;102796.03;4984331;28;20048;-89
2023/05/31 10:38:13;;;;;;;8.43;2.17;;;;;;;21.01;45.54;102783.38;4951554;28;20038;-88
2023/05/31 10:41:02;;;;;;;6.25;2.40;;;;;;;21.09;45.30;102791.44;5013859;28;20128;-89
2023/05/31 10:43:43;;;;;;;3.70;2.10;;;;;;;21.10;45.31;102789.63;4998440;28;20033;-89
2023/05/31 10:46:13;;;;;;;4.80;2.30;;;;;;;20.96;45.44;102775.00;4999497;28;20065;-88
2023/05/31 10:49:05;;;;;;;5.07;2.30;;;;;;;21.02;45.29;102776.25;5014322;28;20095;-88
2023/05/31 10:51:39;;;;;;;3.97;1.80;;;;;;;21.10;45.11;102782.50;5012401;28;20058;-89
2023/05/31 10:54:05;;;;;;;4.30;2.00;;;;;;;21.04;45.35;102769.00;5001306;28;20591;-88
2023/05/31 10:56:31;;;;;;;4.18;2.20;;;;;;;20.95;45.24;102753.94;5012591;28;20054;-88
2023/05/31 10:58:57;;;;;;;3.75;2.10;;;;;;;20.89;45.07;102733.34;4975284;28;20065;-89
2023/05/31 11:01:22;;;;;;;3.50;2.28;;;;;;;21.09;45.42;102772.91;4979030;28;20034;-89
2023/05/31 11:03:50;;;;;;;5.97;2.38;;;;;;;20.91;45.21;102737.50;5014357;28;20069;-89
2023/05/31 11:06:23;;;;;;;1.90;1.67;;;;;;;21.02;45.21;102758.56;5016774;28;20041;-88
2023/05/31 11:09:00;;;;;;;3.10;2.22;;;;;;;21.10;45.23;102769.25;4990938;28;20073;-89
2023/05/31 11:11:32;;;;;;;4.35;2.00;;;;;;;21.10;45.50;102763.97;5024960;28;20067;-89
2023/05/31 11:14:10;;;;;;;2.33;2.00;;;;;;;20.99;45.26;102742.09;5031780;28;20042;-90
2023/05/31 11:16:48;;;;;;;3.53;2.10;;;;;;;21.11;45.29;102762.16;5009731;28;20109;-91
2023/05/31 11:19:19;;;;;;;2.25;1.95;;;;;;;20.92;45.25;102730.41;5034274;28;20029;-86
2023/05/31 11:22:05;;;;;;;5.03;2.60;;;;;;;21.04;45.23;102740.69;5017039;28;20896;-90
2023/05/31 11:24:37;;;;;;;3.35;2.00;;;;;;;21.10;45.27;102750.72;5011972;28;20041;-89
2023/05/31 11:27:05;;;;;;;3.30;2.10;;;;;;;21.04;45.29;102745.16;5016434;28;20092;-90
2023/05/31 11:29:52;;;;;;;2.45;1.80;;;;;;;21.09;45.75;102759.66;5015641;28;20507;-86